Latest Coastal Weather Observations for Flinders Island Airport

IDT60701

Issued at 4:35 am EST Thursday 2 October 2014 (issued every 10 minutes, with the page automatically refreshed every 10 minutes)

About coastal observations | Map of coastal stations | Coastal observations for TAS | Marine services | Other Formats
Station Details ID: 099005 Name: FLINDERS ISLAND AIRPORT Lat: -40.09 Lon: 148.00 Height: 9.0 m
Data from the previous 72 hours. | See also: Recent months at Flinders Island Airport
Date/Time
EST
Temp

°C
Wind Pressure Rain
since 9am
mm
Weather Cloud Vis
km
Sea
Height
m
Swell
Dir
 
Speed
knots
Gust
knots
hPa Trend Height
m
Period
s
Dir
02/04:30am 12.7 W 25 32 1015.7 - 0.0 - Partly cloudy 10 - - - -
02/04:11am 12.5 W 27 36 1015.7 - 0.0 - Partly cloudy 10 - - - -
02/04:02am 12.4 W 26 36 1015.6 - 0.0 - Partly cloudy 10 - - - -
02/04:00am 12.4 W 26 33 1015.6 - 0.0 - Partly cloudy 10 - - - -
02/03:34am 12.2 W 25 35 1015.6 - 0.0 - Partly cloudy 10 - - - -
02/03:30am 12.2 W 25 35 1015.7 - 0.0 - Partly cloudy 10 - - - -
02/03:27am 12.1 W 24 35 1015.7 - 0.0 - Partly cloudy 10 - - - -
02/03:00am 12.2 W 25 33 1016.0 - 0.0 - Cloudy 10 - - - -
02/02:56am 12.3 W 23 33 1016.1 - 0.0 - Partly cloudy 10 - - - -
02/02:50am 12.2 W 23 30 1016.2 - 0.0 - Partly cloudy 10 - - - -
02/02:30am 12.2 W 22 30 1016.5 - 0.0 - Partly cloudy 10 - - - -
02/02:18am 12.2 W 21 30 1016.6 - 0.0 - Partly cloudy 10 - - - -
02/02:02am 12.2 W 21 29 1017.1 - 0.0 - Partly cloudy 10 - - - -
02/02:00am 12.2 W 21 29 1017.1 - 0.0 - Partly cloudy 10 - - - -
02/01:54am 12.2 W 23 29 1017.2 - 0.0 - Partly cloudy 10 - - - -
02/01:41am 12.2 W 23 31 1017.3 - 0.0 - Partly cloudy 10 - - - -
02/01:30am 12.3 W 20 28 1017.4 - 0.0 - Partly cloudy 10 - - - -
02/01:00am 12.1 W 20 30 1017.9 - 0.0 - Partly cloudy 10 - - - -
02/12:57am 12.2 W 19 30 1018.0 - 0.0 - Partly cloudy 10 - - - -
02/12:41am 11.8 W 22 30 1018.2 - 0.0 - Partly cloudy 10 - - - -
02/12:30am 11.7 W 23 31 1018.3 - 0.0 - Partly cloudy 10 - - - -
02/12:21am 12.0 W 21 29 1018.3 - 0.0 - Partly cloudy 10 - - - -
02/12:00am 11.9 W 22 29 1018.6 - 0.0 - Partly cloudy 10 - - - -
 
Date/Time
EST
Temp

°C
Wind Pressure Rain
since 9am
mm
Weather Cloud Vis
km
Sea
Height
m
Swell
Dir
 
Speed
knots
Gust
knots
hPa Trend Height
m
Period
s
Dir
01/11:31pm 11.9 W 24 31 1018.5 - 0.0 - Partly cloudy 10 - - - -
01/11:30pm 11.9 W 25 31 1018.4 - 0.0 - Partly cloudy 10 - - - -
01/11:00pm 12.0 W 20 29 1018.8 - 0.0 - Partly cloudy 10 - - - -
01/10:54pm 12.0 W 19 28 1019.0 - 0.0 - Partly cloudy 10 - - - -
01/10:30pm 11.7 W 24 32 1018.8 - 0.0 - Partly cloudy 10 - - - -
01/10:00pm 11.7 W 23 29 1019.1 - 0.0 - Partly cloudy 10 - - - -
01/09:30pm 11.8 WSW 25 29 1019.5 - 0.0 - - 10 - - - -
01/09:00pm 11.7 WSW 26 30 1019.5 - 0.0 - - 10 - - - -
01/08:30pm 11.8 WSW 25 31 1019.5 - 0.0 - - 10 - - - -
01/08:00pm 11.8 WSW 27 32 1019.4 - 0.0 - Partly cloudy 10 - - - -
01/07:30pm 11.9 WSW 27 34 1019.5 - 0.0 - Partly cloudy 10 - - - -
01/07:00pm 11.8 WSW 26 32 1019.0 - 0.0 - Partly cloudy 10 - - - -
01/06:30pm 11.9 W 28 32 1018.9 - 0.0 - Partly cloudy 10 - - - -
01/06:00pm 12.1 WSW 28 34 1018.3 - 0.0 - Partly cloudy 10 - - - -
01/05:30pm 12.4 WSW 27 33 1018.3 - 0.0 - Partly cloudy 10 - - - -
01/05:00pm 12.4 W 27 32 1018.2 - 0.0 - Partly cloudy 10 - - - -
01/04:30pm 12.9 WSW 27 33 1018.1 - 0.0 - Partly cloudy 10 - - - -
01/04:00pm 13.0 W 29 34 1017.9 - 0.0 - Partly cloudy 10 - - - -
01/03:30pm 13.1 W 27 33 1017.9 - 0.0 - Partly cloudy 10 - - - -
01/03:00pm 13.3 W 27 32 1017.9 - 0.0 - Cloudy 10 - - - -
01/02:30pm 12.8 W 25 31 1017.8 - 0.0 - Partly cloudy 10 - - - -
01/02:00pm 12.9 W 25 30 1017.8 - 0.0 - - 10 - - - -
01/01:30pm 13.3 W 27 32 1017.4 - 0.0 - - 10 - - - -
01/01:00pm 13.5 W 24 31 1017.9 - 0.0 - - 10 - - - -
01/12:30pm 13.0 WSW 27 32 1017.6 - 0.0 - - 10 - - - -
01/12:00pm 13.1 WSW 25 30 1017.7 - 0.0 - Mostly clear 10 - - - -
01/11:30am 13.2 WSW 23 28 1017.8 - 0.0 - Partly cloudy 10 - - - -
01/11:00am 12.7 WSW 21 27 1017.7 - 0.0 - - 10 - - - -
01/10:30am 12.9 WSW 19 23 1017.7 - 0.0 - Partly cloudy 10 - - - -
01/10:00am 11.9 WSW 20 27 1017.5 - 0.0 - - 10 - - - -
01/09:30am 12.2 SW 20 27 1017.0 - 0.0 - Partly cloudy 10 - - - -
01/09:00am 11.7 SW 21 26 1016.7 - 5.8 - Mostly clear 10 - - - -
01/08:30am 10.7 SW 22 28 1016.3 - 5.8 - Partly cloudy 10 - - - -
01/08:00am 11.1 SW 23 30 1015.6 - 5.8 - - 10 - - - -
01/07:30am 10.7 SW 24 30 1014.6 - 5.8 - - 10 - - - -
01/07:00am 10.0 SW 25 32 1014.2 - 5.8 - - 10 - - - -
01/06:30am 9.8 SW 25 32 1013.3 - 5.8 - Partly cloudy 10 - - - -
01/06:00am 9.6 SW 26 34 1012.6 - 5.8 - Mostly clear 10 - - - -
01/05:30am 9.8 SW 28 34 1011.7 - 5.8 - Partly cloudy 10 - - - -
01/05:20am 9.8 SW 26 36 1011.5 - 5.8 - Partly cloudy 10 - - - -
01/05:00am 9.6 WSW 28 36 1011.0 - 5.8 - Partly cloudy 10 - - - -
01/04:30am 9.8 WSW 31 40 1010.2 - 5.8 - Partly cloudy 10 - - - -
01/04:00am 9.6 WSW 26 33 1009.5 - 5.8 - Partly cloudy 10 - - - -
01/03:30am 9.6 WSW 26 34 1009.2 - 5.8 - Partly cloudy 10 - - - -
01/03:00am 9.4 WSW 26 33 1008.6 - 5.8 - Partly cloudy 10 - - - -
01/02:30am 9.6 WSW 25 32 1008.4 - 5.8 - Partly cloudy 10 - - - -
01/02:00am 10.0 WSW 27 33 1008.0 - 5.8 - Partly cloudy 10 - - - -
01/01:30am 10.0 WSW 24 29 1007.8 - 5.8 - Partly cloudy 10 - - - -
01/01:00am 9.4 W 21 27 1007.4 - 5.8 - Partly cloudy 10 - - - -
01/12:30am 9.6 WSW 21 25 1007.1 - 5.8 - Partly cloudy 10 - - - -
01/12:02am 9.3 W 29 39 1007.1 - 5.8 - Partly cloudy 10 - - - -
01/12:00am 9.1 W 30 39 1007.1 - 5.8 - Mostly cloudy 10 - - - -
 
Date/Time
EST
Temp

°C
Wind Pressure Rain
since 9am
mm
Weather Cloud Vis
km
Sea
Height
m
Swell
Dir
 
Speed
knots
Gust
knots
hPa Trend Height
m
Period
s
Dir
30/11:31pm 10.6 WSW 26 38 1006.8 - 5.8 - Partly cloudy 10 - - - -
30/11:30pm 10.6 WSW 26 32 1006.7 - 5.8 - Partly cloudy 10 - - - -
30/11:00pm 10.7 WSW 26 31 1006.4 - 5.8 - Partly cloudy 10 - - - -
30/10:30pm 10.5 W 27 34 1005.9 - 5.8 - Partly cloudy 10 - - - -
30/10:03pm 10.4 WSW 28 38 1005.4 - 5.8 - Partly cloudy 10 - - - -
30/10:00pm 10.4 W 29 38 1005.3 - 5.8 - Partly cloudy 10 - - - -
30/09:30pm 10.5 WSW 32 39 1004.9 - 5.8 - - 10 - - - -
30/09:04pm 10.6 WSW 33 43 1004.6 - 5.8 - Partly cloudy 10 - - - -
30/09:00pm 10.5 W 34 43 1004.5 - 5.8 - Mostly clear 10 - - - -
30/08:38pm 10.7 W 33 43 1004.1 - 5.8 - Partly cloudy 10 - - - -
30/08:30pm 10.9 W 31 39 1003.7 - 5.8 - Partly cloudy 10 - - - -
30/08:06pm 10.7 W 31 41 1003.7 - 5.8 - Partly cloudy 10 - - - -
30/08:00pm 10.5 W 35 43 1003.3 - 5.8 - Partly cloudy 10 - - - -
30/07:52pm 10.9 W 32 43 1003.3 - 5.8 - Partly cloudy 10 - - - -
30/07:30pm 10.1 W 27 33 1003.5 - 5.8 - Partly cloudy 10 - - - -
30/07:14pm 11.2 W 28 40 1003.1 - 5.4 - Partly cloudy 10 - - - -
30/07:00pm 11.0 W 28 33 1002.5 - 5.4 - Partly cloudy 10 - - - -
30/06:34pm 10.6 W 26 32 1002.6 - 5.4 - Partly cloudy 10 - - - -
30/06:30pm 10.9 W 27 33 1002.3 - 5.4 - Partly cloudy 8 - - - -
30/06:25pm 10.9 W 31 41 1002.5 - 5.4 - Partly cloudy 6 - - - -
30/06:09pm 11.1 W 35 42 1001.4 - 4.6 - Partly cloudy 5 - - - -
30/06:05pm 10.9 W 34 42 1001.4 - 4.6 - Partly cloudy 5 - - - -
30/06:00pm 11.0 W 34 46 1001.3 - 4.4 Recent precip. Cloudy 7 - - - -
30/05:55pm 11.4 W 34 46 1001.1 - 4.4 - Partly cloudy 9 - - - -
30/05:52pm 11.4 W 34 41 1000.9 - 4.4 - Partly cloudy 9 - - - -
30/05:51pm 11.7 W 35 41 1000.9 - 4.4 - Partly cloudy 9 - - - -
30/05:34pm 11.9 W 24 34 1000.6 - 4.2 - Partly cloudy 5 - - - -
30/05:32pm 11.9 WNW 23 32 1000.4 - 4.0 - Partly cloudy 5 - - - -
30/05:30pm 11.8 WNW 21 31 1000.3 - 4.0 - Partly cloudy 6 - - - -
30/05:28pm 11.8 WNW 20 30 1000.3 - 3.8 - Partly cloudy 7 - - - -
30/05:23pm 11.7 WNW 18 25 1000.3 - 3.6 - Partly cloudy 8 - - - -
30/05:04pm 11.7 W 18 23 1000.7 - 2.8 - Partly cloudy 5 - - - -
30/05:00pm 11.7 W 18 27 1000.7 - 2.6 - Partly cloudy 7 - - - -
30/04:52pm 11.7 W 22 28 1000.6 - 2.4 - Partly cloudy 9 - - - -
30/04:30pm 11.9 W 26 32 1000.4 - 1.6 - Partly cloudy 4 - - - -
30/04:02pm 13.4 W 29 41 999.5 - 0.2 - Partly cloudy 5 - - - -
30/04:00pm 13.4 W 31 49 999.4 - 0.0 - Partly cloudy 6 - - - -
30/03:53pm 15.4 W 36 49 999.1 - 0.0 - Partly cloudy 10 - - - -
30/03:51pm 17.9 NW 19 43 998.6 - 0.0 - Partly cloudy 10 - - - -
30/03:30pm 18.6 NNW 20 28 998.3 - 0.0 - Partly cloudy 10 - - - -
30/03:20pm 18.7 NNW 17 27 998.6 - 0.0 - Partly cloudy 10 - - - -
30/03:00pm 19.5 NNW 16 23 998.6 - 0.0 - Cloudy 10 - - - -
30/02:30pm 18.9 NNW 16 21 999.0 - 0.0 - Partly cloudy 10 - - - -
30/02:00pm 18.6 NW 16 26 1000.1 - 0.0 - Partly cloudy 10 - - - -
30/01:30pm 19.0 NW 19 25 1000.9 - 0.0 - Cloudy 10 - - - -
30/01:02pm 18.6 NNW 18 30 1001.3 - 0.0 - Cloudy 10 - - - -
30/01:00pm 18.7 NNW 19 27 1001.3 - 0.0 - Cloudy 10 - - - -
30/12:47pm 18.4 NNW 19 29 1001.5 - 0.0 - Cloudy 10 - - - -
30/12:30pm 18.5 NW 19 28 1001.8 - 0.0 - Partly cloudy 10 - - - -
30/12:08pm 18.4 NW 22 33 1002.2 - 0.0 - Partly cloudy 10 - - - -
30/12:00pm 18.5 NW 21 29 1002.4 - 0.0 - Mostly clear 10 - - - -
30/11:37am 17.0 NW 20 30 1003.1 - 0.0 - Partly cloudy 10 - - - -
30/11:30am 16.4 NW 23 29 1003.3 - 0.0 - Partly cloudy 10 - - - -
30/11:00am 17.4 WNW 23 31 1004.0 - 0.0 - Partly cloudy 10 - - - -
30/10:55am 17.0 WNW 23 33 1004.2 - 0.0 - Partly cloudy 10 - - - -
30/10:30am 17.2 NW 24 32 1004.5 - 0.0 - - 10 - - - -
30/10:03am 16.9 NW 21 31 1004.7 - 0.0 - - 10 - - - -
30/10:00am 16.9 NW 23 31 1004.8 - 0.0 - - 10 - - - -
30/09:48am 17.0 NW 21 31 1004.9 - 0.0 - - 10 - - - -
30/09:30am 16.5 NW 21 29 1005.1 - 0.0 - - 10 - - - -
30/09:00am 16.2 NW 19 25 1005.5 - 0.0 - - 10 - - - -
30/08:30am 15.7 NW 17 21 1006.1 - 0.0 - - 10 - - - -
30/08:00am 14.9 NW 14 19 1006.4 - 0.0 - - 10 - - - -
30/07:30am 14.7 NW 11 15 1006.5 - 0.0 - - 10 - - - -
30/07:00am 14.0 WNW 8 10 1006.5 - 0.0 - Partly cloudy 10 - - - -
30/06:30am 13.5 NNW 7 10 1006.6 - 0.0 - Partly cloudy 10 - - - -
30/06:00am 12.9 N 7 14 1006.1 - 0.0 - - 10 - - - -
30/05:30am 12.8 NW 2 5 1006.2 - 0.0 - - 10 - - - -
30/05:00am 12.6 NW 5 6 1006.9 - 0.0 - - 10 - - - -
30/04:30am 12.2 NNW 7 11 1007.5 - 0.0 - Partly cloudy 10 - - - -
30/04:22am 12.6 NNW 9 14 1007.6 - 0.0 - Partly cloudy 10 - - - -
30/04:00am 12.6 NNW 8 12 1008.0 - 0.0 - Partly cloudy 10 - - - -
30/03:55am 12.8 NNW 9 12 1008.2 - 0.0 - Partly cloudy 10 - - - -
30/03:30am 12.5 NNW 7 9 1008.3 - 0.0 - - 10 - - - -
30/03:00am 12.3 N 5 7 1008.7 - 0.0 - - 10 - - - -
30/02:30am 9.7 N 4 6 1009.3 - 0.0 - Partly cloudy 10 - - - -
30/02:00am 10.9 NNW 4 5 1009.7 - 0.0 - - 10 - - - -
30/01:30am 11.5 NW 5 6 1010.3 - 0.0 - - 10 - - - -
30/01:00am 12.0 NNW 6 8 1010.8 - 0.0 - - 10 - - - -
30/12:30am 12.1 NNW 8 12 1010.9 - 0.0 - - 10 - - - -
30/12:00am 11.9 N 6 9 1011.0 - 0.0 - - 10 - - - -
 
Date/Time
EST
Temp

°C
Wind Pressure Rain
since 9am
mm
Weather Cloud Vis
km
Sea
Height
m
Swell
Dir
 
Speed
knots
Gust
knots
hPa Trend Height
m
Period
s
Dir
29/11:30pm 12.2 N 8 11 1011.2 - 0.0 - - 10 - - - -
29/11:00pm 12.3 N 9 14 1011.3 - 0.0 - - 10 - - - -
29/10:30pm 11.6 N 7 9 1011.4 - 0.0 - - 10 - - - -
29/10:00pm 11.6 N 8 11 1011.4 - 0.0 - - 10 - - - -
29/09:30pm 10.9 NNW 5 5 1011.1 - 0.0 - - 10 - - - -
29/09:00pm 11.2 N 5 6 1011.1 - 0.0 - - 10 - - - -
29/08:30pm 11.8 WNW 8 9 1011.3 - 0.0 - - 10 - - - -
29/08:00pm 12.4 WNW 8 11 1011.2 - 0.0 - - 10 - - - -
29/07:30pm 12.6 WNW 9 14 1011.1 - 0.0 - - 10 - - - -
29/07:00pm 12.9 W 10 13 1010.7 - 0.0 - - 10 - - - -
29/06:30pm 13.2 W 12 16 1010.4 - 0.0 - - 10 - - - -
29/06:00pm 13.6 W 14 18 1010.2 - 0.0 - - 10 - - - -
29/05:30pm 14.1 W 16 19 1010.2 - 0.0 - - 10 - - - -
29/05:00pm 14.5 WNW 18 22 1010.2 - 0.0 - - 10 - - - -
29/04:30pm 14.9 W 20 27 1010.0 - 0.0 - - 10 - - - -
29/04:00pm 15.4 W 21 26 1009.9 - 0.0 - - 10 - - - -
29/03:30pm 15.7 W 22 28 1010.1 - 0.0 - - 10 - - - -
29/03:00pm 15.9 W 20 25 1010.2 - 0.0 - Partly cloudy 10 - - - -
29/02:54pm 15.8 W 19 25 1010.3 - 0.0 - Partly cloudy 10 - - - -
29/02:41pm 15.9 W 19 26 1010.1 - 0.0 - Partly cloudy 10 - - - -
29/02:30pm 15.7 W 20 26 1010.0 - 0.0 - Partly cloudy 10 - - - -
29/02:00pm 16.3 W 21 27 1010.0 - 0.0 - Partly cloudy 10 - - - -
29/01:30pm 15.8 W 21 27 1010.4 - 0.0 - Partly cloudy 10 - - - -
29/01:00pm 16.1 W 20 27 1010.3 - 0.0 - Partly cloudy 10 - - - -
29/12:30pm 16.1 W 22 28 1010.1 - 0.0 - Partly cloudy 10 - - - -
29/12:00pm 15.7 W 25 32 1009.8 - 0.0 - - 10 - - - -
29/11:30am 15.6 W 24 33 1010.0 - 0.0 - Partly cloudy 10 - - - -
29/11:00am 15.8 W 24 30 1010.1 - 0.0 - Partly cloudy 10 - - - -
29/10:30am 15.7 WNW 21 27 1010.2 - 0.0 - Partly cloudy 10 - - - -
29/10:00am 15.8 W 22 29 1010.1 - 0.0 - Partly cloudy 10 - - - -
29/09:30am 15.6 W 23 28 1010.1 - 0.0 - Partly cloudy 10 - - - -
29/09:00am 14.7 W 17 22 1010.2 - 0.4 - Cloudy 10 - - - -
29/08:30am 14.1 W 21 26 1009.8 - 0.4 - Partly cloudy 10 - - - -
29/08:15am 14.6 W 18 24 1009.5 - 0.4 - Partly cloudy 10 - - - -
29/08:00am 14.1 W 17 21 1009.3 - 0.4 - Partly cloudy 10 - - - -
29/07:30am 14.0 W 17 21 1009.1 - 0.4 - Partly cloudy 10 - - - -
29/07:28am 14.1 W 17 21 1009.0 - 0.4 - Partly cloudy 10 - - - -
29/07:00am 13.8 W 18 24 1008.5 - 0.4 - - 10 - - - -
29/06:30am 13.4 W 18 24 1008.1 - 0.4 - - 10 - - - -
29/06:00am 13.2 W 25 33 1007.4 - 0.4 - Cloudy 10 - - - -
29/05:37am 14.0 WNW 18 29 1006.8 - 0.4 - Partly cloudy 10 - - - -
29/05:30am 14.0 WNW 18 26 1006.7 - 0.4 - Partly cloudy 10 - - - -
29/05:00am 13.6 WNW 20 28 1006.4 - 0.4 - Partly cloudy 10 - - - -
29/04:53am 13.7 WNW 18 28 1006.3 - 0.4 - Partly cloudy 10 - - - -

Other Formats:

Comma delimited format used in spreadsheet applications
http://www.bom.gov.au/fwo/IDT60701/IDT60701.94980.axf

JavaScript Object Notation format (JSON) in row-major order
http://www.bom.gov.au/fwo/IDT60701/IDT60701.94980.json